sensor_id;sensor_type;location;lat;lon;timestamp;P1;durP1;ratioP1;P2;durP2;ratioP2
18520;SDS011;9390;51.244;6.982;2023-08-20T00:01:53;27.20;;;15.65;;
18520;SDS011;9390;51.244;6.982;2023-08-20T00:04:28;24.10;;;14.20;;
18520;SDS011;9390;51.244;6.982;2023-08-20T00:07:02;26.90;;;14.50;;
18520;SDS011;9390;51.244;6.982;2023-08-20T00:09:35;21.80;;;14.38;;
18520;SDS011;9390;51.244;6.982;2023-08-20T00:12:07;27.25;;;14.90;;
18520;SDS011;9390;51.244;6.982;2023-08-20T00:14:51;31.65;;;15.00;;
18520;SDS011;9390;51.244;6.982;2023-08-20T00:17:25;29.83;;;16.23;;
18520;SDS011;9390;51.244;6.982;2023-08-20T00:19:58;27.90;;;16.50;;
18520;SDS011;9390;51.244;6.982;2023-08-20T00:22:29;26.52;;;15.07;;
18520;SDS011;9390;51.244;6.982;2023-08-20T00:25:02;29.95;;;17.60;;
18520;SDS011;9390;51.244;6.982;2023-08-20T00:27:34;29.50;;;16.73;;
18520;SDS011;9390;51.244;6.982;2023-08-20T00:30:06;27.02;;;16.17;;
18520;SDS011;9390;51.244;6.982;2023-08-20T00:32:39;29.30;;;16.83;;
18520;SDS011;9390;51.244;6.982;2023-08-20T00:37:42;33.83;;;17.75;;
18520;SDS011;9390;51.244;6.982;2023-08-20T00:40:14;34.87;;;18.40;;
18520;SDS011;9390;51.244;6.982;2023-08-20T00:42:46;30.10;;;18.30;;
18520;SDS011;9390;51.244;6.982;2023-08-20T00:45:17;34.72;;;19.33;;
18520;SDS011;9390;51.244;6.982;2023-08-20T00:47:50;31.90;;;19.25;;
18520;SDS011;9390;51.244;6.982;2023-08-20T00:52:53;32.40;;;18.52;;
18520;SDS011;9390;51.244;6.982;2023-08-20T00:55:24;31.80;;;19.63;;
18520;SDS011;9390;51.244;6.982;2023-08-20T00:57:56;35.28;;;19.33;;
18520;SDS011;9390;51.244;6.982;2023-08-20T01:00:27;34.10;;;20.05;;
18520;SDS011;9390;51.244;6.982;2023-08-20T01:03:00;33.75;;;18.88;;
18520;SDS011;9390;51.244;6.982;2023-08-20T01:05:33;31.92;;;20.08;;
18520;SDS011;9390;51.244;6.982;2023-08-20T01:08:13;37.10;;;19.27;;
18520;SDS011;9390;51.244;6.982;2023-08-20T01:10:52;31.83;;;18.52;;
18520;SDS011;9390;51.244;6.982;2023-08-20T01:13:27;35.13;;;18.75;;
18520;SDS011;9390;51.244;6.982;2023-08-20T01:15:59;28.02;;;17.30;;
18520;SDS011;9390;51.244;6.982;2023-08-20T01:18:31;30.08;;;17.50;;
18520;SDS011;9390;51.244;6.982;2023-08-20T01:26:47;32.60;;;20.00;;
18520;SDS011;9390;51.244;6.982;2023-08-20T01:29:26;34.35;;;20.52;;
18520;SDS011;9390;51.244;6.982;2023-08-20T01:31:58;36.58;;;21.75;;
18520;SDS011;9390;51.244;6.982;2023-08-20T01:34:30;42.92;;;22.17;;
18520;SDS011;9390;51.244;6.982;2023-08-20T01:37:02;35.50;;;20.75;;
18520;SDS011;9390;51.244;6.982;2023-08-20T01:39:33;35.30;;;21.23;;
18520;SDS011;9390;51.244;6.982;2023-08-20T01:42:05;38.78;;;20.75;;
18520;SDS011;9390;51.244;6.982;2023-08-20T01:44:38;35.03;;;19.53;;
18520;SDS011;9390;51.244;6.982;2023-08-20T01:47:10;32.95;;;18.70;;
18520;SDS011;9390;51.244;6.982;2023-08-20T01:49:41;31.95;;;19.63;;
18520;SDS011;9390;51.244;6.982;2023-08-20T01:52:12;39.42;;;21.90;;
18520;SDS011;9390;51.244;6.982;2023-08-20T01:54:44;37.83;;;21.33;;
18520;SDS011;9390;51.244;6.982;2023-08-20T01:57:15;38.88;;;21.40;;
18520;SDS011;9390;51.244;6.982;2023-08-20T01:59:48;35.55;;;20.73;;
18520;SDS011;9390;51.244;6.982;2023-08-20T02:02:20;38.33;;;20.25;;
18520;SDS011;9390;51.244;6.982;2023-08-20T02:04:51;32.63;;;18.27;;
18520;SDS011;9390;51.244;6.982;2023-08-20T02:07:22;39.13;;;19.08;;
18520;SDS011;9390;51.244;6.982;2023-08-20T02:09:54;34.50;;;19.95;;
18520;SDS011;9390;51.244;6.982;2023-08-20T02:12:25;34.35;;;20.08;;
18520;SDS011;9390;51.244;6.982;2023-08-20T02:14:58;40.63;;;22.60;;
18520;SDS011;9390;51.244;6.982;2023-08-20T02:17:30;35.33;;;20.10;;
18520;SDS011;9390;51.244;6.982;2023-08-20T02:20:01;38.92;;;20.60;;
18520;SDS011;9390;51.244;6.982;2023-08-20T02:22:34;39.53;;;20.80;;
18520;SDS011;9390;51.244;6.982;2023-08-20T02:25:06;43.50;;;21.45;;
18520;SDS011;9390;51.244;6.982;2023-08-20T02:27:38;36.10;;;21.17;;
18520;SDS011;9390;51.244;6.982;2023-08-20T02:30:11;36.47;;;21.60;;
18520;SDS011;9390;51.244;6.982;2023-08-20T02:32:44;38.17;;;21.10;;
18520;SDS011;9390;51.244;6.982;2023-08-20T02:35:15;35.95;;;21.20;;
18520;SDS011;9390;51.244;6.982;2023-08-20T02:37:47;36.88;;;21.40;;
18520;SDS011;9390;51.244;6.982;2023-08-20T02:40:18;38.75;;;22.02;;
18520;SDS011;9390;51.244;6.982;2023-08-20T02:42:49;42.55;;;22.52;;
18520;SDS011;9390;51.244;6.982;2023-08-20T02:45:22;43.47;;;22.23;;
18520;SDS011;9390;51.244;6.982;2023-08-20T02:47:54;42.95;;;23.00;;
18520;SDS011;9390;51.244;6.982;2023-08-20T02:50:25;47.33;;;24.38;;
18520;SDS011;9390;51.244;6.982;2023-08-20T02:52:56;52.00;;;26.80;;
18520;SDS011;9390;51.244;6.982;2023-08-20T02:55:28;43.15;;;22.15;;
18520;SDS011;9390;51.244;6.982;2023-08-20T02:57:59;38.85;;;22.15;;
18520;SDS011;9390;51.244;6.982;2023-08-20T03:00:33;42.33;;;22.17;;
18520;SDS011;9390;51.244;6.982;2023-08-20T03:03:05;42.55;;;22.80;;
18520;SDS011;9390;51.244;6.982;2023-08-20T03:05:38;41.63;;;23.08;;
18520;SDS011;9390;51.244;6.982;2023-08-20T03:08:09;46.63;;;24.80;;
18520;SDS011;9390;51.244;6.982;2023-08-20T03:10:41;45.30;;;23.83;;
18520;SDS011;9390;51.244;6.982;2023-08-20T03:13:12;51.97;;;26.65;;
18520;SDS011;9390;51.244;6.982;2023-08-20T03:15:45;50.17;;;25.83;;
18520;SDS011;9390;51.244;6.982;2023-08-20T03:18:17;55.45;;;27.40;;
18520;SDS011;9390;51.244;6.982;2023-08-20T03:20:48;50.20;;;26.83;;
18520;SDS011;9390;51.244;6.982;2023-08-20T03:23:20;53.17;;;26.65;;
18520;SDS011;9390;51.244;6.982;2023-08-20T03:25:51;45.28;;;24.98;;
18520;SDS011;9390;51.244;6.982;2023-08-20T03:28:22;48.00;;;25.08;;
18520;SDS011;9390;51.244;6.982;2023-08-20T03:30:58;45.03;;;24.42;;
18520;SDS011;9390;51.244;6.982;2023-08-20T03:33:30;47.75;;;24.38;;
18520;SDS011;9390;51.244;6.982;2023-08-20T03:36:02;52.60;;;24.02;;
18520;SDS011;9390;51.244;6.982;2023-08-20T03:38:33;44.85;;;23.52;;
18520;SDS011;9390;51.244;6.982;2023-08-20T03:41:05;47.47;;;23.40;;
18520;SDS011;9390;51.244;6.982;2023-08-20T03:43:36;46.22;;;25.38;;
18520;SDS011;9390;51.244;6.982;2023-08-20T03:46:09;53.15;;;23.55;;
18520;SDS011;9390;51.244;6.982;2023-08-20T03:48:40;40.95;;;22.23;;
18520;SDS011;9390;51.244;6.982;2023-08-20T03:51:12;42.15;;;21.27;;
18520;SDS011;9390;51.244;6.982;2023-08-20T03:53:43;47.42;;;24.17;;
18520;SDS011;9390;51.244;6.982;2023-08-20T03:56:15;53.08;;;25.27;;
18520;SDS011;9390;51.244;6.982;2023-08-20T03:58:46;47.38;;;24.17;;
18520;SDS011;9390;51.244;6.982;2023-08-20T04:01:19;49.08;;;24.85;;
18520;SDS011;9390;51.244;6.982;2023-08-20T04:03:50;51.63;;;26.00;;
18520;SDS011;9390;51.244;6.982;2023-08-20T04:06:22;53.17;;;25.77;;
18520;SDS011;9390;51.244;6.982;2023-08-20T04:08:54;50.15;;;25.85;;
18520;SDS011;9390;51.244;6.982;2023-08-20T04:11:25;51.17;;;25.55;;
18520;SDS011;9390;51.244;6.982;2023-08-20T04:13:56;50.08;;;26.15;;
18520;SDS011;9390;51.244;6.982;2023-08-20T04:16:29;50.78;;;27.02;;
18520;SDS011;9390;51.244;6.982;2023-08-20T04:21:32;58.67;;;28.15;;
18520;SDS011;9390;51.244;6.982;2023-08-20T04:24:04;46.97;;;25.70;;
18520;SDS011;9390;51.244;6.982;2023-08-20T04:26:35;48.10;;;24.97;;
18520;SDS011;9390;51.244;6.982;2023-08-20T04:29:07;46.22;;;23.73;;
18520;SDS011;9390;51.244;6.982;2023-08-20T04:31:40;54.08;;;26.08;;
18520;SDS011;9390;51.244;6.982;2023-08-20T04:34:11;51.38;;;26.08;;
18520;SDS011;9390;51.244;6.982;2023-08-20T04:36:42;52.05;;;25.75;;
18520;SDS011;9390;51.244;6.982;2023-08-20T04:39:14;46.35;;;24.27;;
18520;SDS011;9390;51.244;6.982;2023-08-20T04:41:45;51.70;;;27.25;;
18520;SDS011;9390;51.244;6.982;2023-08-20T04:44:17;55.92;;;27.60;;
18520;SDS011;9390;51.244;6.982;2023-08-20T04:46:49;58.30;;;26.75;;
18520;SDS011;9390;51.244;6.982;2023-08-20T04:51:52;57.58;;;26.70;;
18520;SDS011;9390;51.244;6.982;2023-08-20T04:54:23;61.08;;;30.40;;
18520;SDS011;9390;51.244;6.982;2023-08-20T04:56:55;64.45;;;29.92;;
18520;SDS011;9390;51.244;6.982;2023-08-20T04:59:27;69.35;;;30.20;;
18520;SDS011;9390;51.244;6.982;2023-08-20T05:02:00;61.75;;;28.38;;
18520;SDS011;9390;51.244;6.982;2023-08-20T05:04:31;63.15;;;29.05;;
18520;SDS011;9390;51.244;6.982;2023-08-20T05:07:02;61.33;;;30.10;;
18520;SDS011;9390;51.244;6.982;2023-08-20T05:09:36;57.80;;;27.77;;
18520;SDS011;9390;51.244;6.982;2023-08-20T05:12:08;55.42;;;28.27;;
18520;SDS011;9390;51.244;6.982;2023-08-20T05:14:39;60.28;;;28.88;;
18520;SDS011;9390;51.244;6.982;2023-08-20T05:17:12;58.33;;;27.48;;
18520;SDS011;9390;51.244;6.982;2023-08-20T05:19:43;51.33;;;26.25;;
18520;SDS011;9390;51.244;6.982;2023-08-20T05:22:15;49.28;;;25.98;;
18520;SDS011;9390;51.244;6.982;2023-08-20T05:24:46;52.85;;;25.70;;
18520;SDS011;9390;51.244;6.982;2023-08-20T05:27:18;51.90;;;26.40;;
18520;SDS011;9390;51.244;6.982;2023-08-20T05:29:49;53.60;;;25.58;;
18520;SDS011;9390;51.244;6.982;2023-08-20T05:32:22;51.92;;;26.17;;
18520;SDS011;9390;51.244;6.982;2023-08-20T05:34:53;48.85;;;24.75;;
18520;SDS011;9390;51.244;6.982;2023-08-20T05:37:24;63.85;;;29.42;;
18520;SDS011;9390;51.244;6.982;2023-08-20T05:39:56;61.15;;;28.33;;
18520;SDS011;9390;51.244;6.982;2023-08-20T05:42:27;58.80;;;27.85;;
18520;SDS011;9390;51.244;6.982;2023-08-20T05:44:59;61.58;;;31.98;;
18520;SDS011;9390;51.244;6.982;2023-08-20T05:47:32;55.45;;;28.38;;
18520;SDS011;9390;51.244;6.982;2023-08-20T05:50:03;57.47;;;27.88;;
18520;SDS011;9390;51.244;6.982;2023-08-20T05:52:35;61.20;;;28.33;;
18520;SDS011;9390;51.244;6.982;2023-08-20T05:55:07;66.07;;;29.30;;
18520;SDS011;9390;51.244;6.982;2023-08-20T05:57:38;51.78;;;26.80;;
18520;SDS011;9390;51.244;6.982;2023-08-20T06:00:11;55.83;;;26.52;;
18520;SDS011;9390;51.244;6.982;2023-08-20T06:02:44;46.75;;;24.85;;
18520;SDS011;9390;51.244;6.982;2023-08-20T06:05:15;49.85;;;25.38;;
18520;SDS011;9390;51.244;6.982;2023-08-20T06:07:47;41.83;;;22.30;;
18520;SDS011;9390;51.244;6.982;2023-08-20T06:10:18;38.97;;;21.90;;
18520;SDS011;9390;51.244;6.982;2023-08-20T06:12:50;44.33;;;24.23;;
18520;SDS011;9390;51.244;6.982;2023-08-20T06:15:21;43.42;;;22.23;;
18520;SDS011;9390;51.244;6.982;2023-08-20T06:17:54;39.58;;;20.05;;
18520;SDS011;9390;51.244;6.982;2023-08-20T06:20:25;32.03;;;19.42;;
18520;SDS011;9390;51.244;6.982;2023-08-20T06:22:56;34.58;;;18.90;;
18520;SDS011;9390;51.244;6.982;2023-08-20T06:25:28;30.33;;;19.40;;
18520;SDS011;9390;51.244;6.982;2023-08-20T06:27:59;30.30;;;17.45;;
18520;SDS011;9390;51.244;6.982;2023-08-20T06:30:31;27.67;;;16.60;;
18520;SDS011;9390;51.244;6.982;2023-08-20T06:33:04;31.95;;;17.92;;
18520;SDS011;9390;51.244;6.982;2023-08-20T06:35:36;26.98;;;16.08;;
18520;SDS011;9390;51.244;6.982;2023-08-20T06:38:08;30.95;;;15.52;;
18520;SDS011;9390;51.244;6.982;2023-08-20T06:40:39;23.42;;;14.70;;
18520;SDS011;9390;51.244;6.982;2023-08-20T06:43:10;24.80;;;14.68;;
18520;SDS011;9390;51.244;6.982;2023-08-20T06:45:42;28.65;;;15.20;;
18520;SDS011;9390;51.244;6.982;2023-08-20T06:48:15;25.45;;;14.25;;
18520;SDS011;9390;51.244;6.982;2023-08-20T06:50:49;22.35;;;14.15;;
18520;SDS011;9390;51.244;6.982;2023-08-20T06:53:21;20.88;;;13.32;;
18520;SDS011;9390;51.244;6.982;2023-08-20T06:55:52;19.35;;;12.90;;
18520;SDS011;9390;51.244;6.982;2023-08-20T06:58:24;19.17;;;11.65;;
18520;SDS011;9390;51.244;6.982;2023-08-20T07:00:55;19.27;;;12.45;;
18520;SDS011;9390;51.244;6.982;2023-08-20T07:03:28;19.75;;;13.32;;
18520;SDS011;9390;51.244;6.982;2023-08-20T07:05:59;19.55;;;12.02;;
18520;SDS011;9390;51.244;6.982;2023-08-20T07:08:31;19.27;;;11.35;;
18520;SDS011;9390;51.244;6.982;2023-08-20T07:11:02;16.75;;;11.30;;
18520;SDS011;9390;51.244;6.982;2023-08-20T07:13:34;16.25;;;11.05;;
18520;SDS011;9390;51.244;6.982;2023-08-20T07:16:05;19.80;;;10.95;;
18520;SDS011;9390;51.244;6.982;2023-08-20T07:18:38;20.58;;;11.77;;
18520;SDS011;9390;51.244;6.982;2023-08-20T07:23:41;17.58;;;11.00;;
18520;SDS011;9390;51.244;6.982;2023-08-20T07:26:12;20.50;;;11.65;;
18520;SDS011;9390;51.244;6.982;2023-08-20T07:28:43;17.67;;;11.07;;
18520;SDS011;9390;51.244;6.982;2023-08-20T07:31:27;19.85;;;10.63;;
18520;SDS011;9390;51.244;6.982;2023-08-20T07:34:02;16.75;;;10.20;;
18520;SDS011;9390;51.244;6.982;2023-08-20T07:36:34;16.65;;;10.07;;
18520;SDS011;9390;51.244;6.982;2023-08-20T07:39:05;16.23;;;10.75;;
18520;SDS011;9390;51.244;6.982;2023-08-20T07:44:09;17.17;;;10.32;;
18520;SDS011;9390;51.244;6.982;2023-08-20T07:46:41;16.02;;;10.10;;
18520;SDS011;9390;51.244;6.982;2023-08-20T07:49:14;15.07;;;9.60;;
18520;SDS011;9390;51.244;6.982;2023-08-20T07:54:16;16.45;;;10.13;;
18520;SDS011;9390;51.244;6.982;2023-08-20T07:56:48;13.13;;;8.90;;
18520;SDS011;9390;51.244;6.982;2023-08-20T07:59:19;16.55;;;9.45;;
18520;SDS011;9390;51.244;6.982;2023-08-20T08:01:50;15.40;;;9.48;;
18520;SDS011;9390;51.244;6.982;2023-08-20T08:04:23;15.13;;;9.30;;
18520;SDS011;9390;51.244;6.982;2023-08-20T08:09:26;11.82;;;7.20;;
18520;SDS011;9390;51.244;6.982;2023-08-20T08:11:59;14.30;;;7.78;;
18520;SDS011;9390;51.244;6.982;2023-08-20T08:14:31;13.83;;;8.30;;
18520;SDS011;9390;51.244;6.982;2023-08-20T08:17:02;15.70;;;8.68;;
18520;SDS011;9390;51.244;6.982;2023-08-20T08:19:36;16.13;;;9.05;;
18520;SDS011;9390;51.244;6.982;2023-08-20T08:22:07;15.60;;;8.93;;
18520;SDS011;9390;51.244;6.982;2023-08-20T08:24:39;12.57;;;6.97;;
18520;SDS011;9390;51.244;6.982;2023-08-20T08:27:12;13.52;;;6.97;;
18520;SDS011;9390;51.244;6.982;2023-08-20T08:29:43;17.20;;;6.47;;
18520;SDS011;9390;51.244;6.982;2023-08-20T08:32:15;12.20;;;7.03;;
18520;SDS011;9390;51.244;6.982;2023-08-20T08:34:48;14.02;;;6.00;;
18520;SDS011;9390;51.244;6.982;2023-08-20T08:39:50;9.55;;;5.90;;
18520;SDS011;9390;51.244;6.982;2023-08-20T08:42:22;10.77;;;5.70;;
18520;SDS011;9390;51.244;6.982;2023-08-20T08:44:54;12.10;;;5.63;;
18520;SDS011;9390;51.244;6.982;2023-08-20T08:47:26;9.33;;;4.97;;
18520;SDS011;9390;51.244;6.982;2023-08-20T08:49:59;13.82;;;5.43;;
18520;SDS011;9390;51.244;6.982;2023-08-20T08:52:31;12.02;;;5.57;;
18520;SDS011;9390;51.244;6.982;2023-08-20T08:55:03;9.93;;;5.22;;
18520;SDS011;9390;51.244;6.982;2023-08-20T08:57:36;14.00;;;5.72;;
18520;SDS011;9390;51.244;6.982;2023-08-20T09:00:07;10.45;;;6.22;;
18520;SDS011;9390;51.244;6.982;2023-08-20T09:05:14;10.43;;;6.20;;
18520;SDS011;9390;51.244;6.982;2023-08-20T09:07:45;11.32;;;5.80;;
18520;SDS011;9390;51.244;6.982;2023-08-20T09:10:16;10.70;;;5.95;;
18520;SDS011;9390;51.244;6.982;2023-08-20T09:12:48;12.13;;;5.65;;
18520;SDS011;9390;51.244;6.982;2023-08-20T09:15:22;10.73;;;5.18;;
18520;SDS011;9390;51.244;6.982;2023-08-20T09:18:02;8.57;;;5.03;;
18520;SDS011;9390;51.244;6.982;2023-08-20T09:20:35;12.00;;;5.55;;
18520;SDS011;9390;51.244;6.982;2023-08-20T09:23:10;9.65;;;4.93;;
18520;SDS011;9390;51.244;6.982;2023-08-20T09:25:42;9.68;;;4.70;;
18520;SDS011;9390;51.244;6.982;2023-08-20T09:30:56;11.77;;;4.93;;
18520;SDS011;9390;51.244;6.982;2023-08-20T09:33:29;9.50;;;5.15;;
18520;SDS011;9390;51.244;6.982;2023-08-20T09:36:02;8.93;;;4.53;;
18520;SDS011;9390;51.244;6.982;2023-08-20T09:38:36;11.32;;;4.85;;
18520;SDS011;9390;51.244;6.982;2023-08-20T09:41:08;9.98;;;4.43;;
18520;SDS011;9390;51.244;6.982;2023-08-20T09:43:40;9.50;;;5.85;;
18520;SDS011;9390;51.244;6.982;2023-08-20T09:46:12;11.07;;;5.60;;
18520;SDS011;9390;51.244;6.982;2023-08-20T09:48:44;8.40;;;4.68;;
18520;SDS011;9390;51.244;6.982;2023-08-20T09:51:19;8.65;;;4.10;;
18520;SDS011;9390;51.244;6.982;2023-08-20T09:53:56;8.10;;;4.47;;
18520;SDS011;9390;51.244;6.982;2023-08-20T09:56:34;10.38;;;4.47;;
18520;SDS011;9390;51.244;6.982;2023-08-20T09:59:07;10.20;;;4.65;;
18520;SDS011;9390;51.244;6.982;2023-08-20T10:01:39;8.43;;;4.27;;
18520;SDS011;9390;51.244;6.982;2023-08-20T10:04:10;8.93;;;4.97;;
18520;SDS011;9390;51.244;6.982;2023-08-20T10:06:44;9.38;;;5.05;;
18520;SDS011;9390;51.244;6.982;2023-08-20T10:09:15;8.45;;;5.05;;
18520;SDS011;9390;51.244;6.982;2023-08-20T10:11:47;10.05;;;4.75;;
18520;SDS011;9390;51.244;6.982;2023-08-20T10:14:19;8.85;;;4.90;;
18520;SDS011;9390;51.244;6.982;2023-08-20T10:16:50;8.05;;;4.38;;
18520;SDS011;9390;51.244;6.982;2023-08-20T10:19:22;7.82;;;4.10;;
18520;SDS011;9390;51.244;6.982;2023-08-20T10:21:55;8.07;;;4.50;;
18520;SDS011;9390;51.244;6.982;2023-08-20T10:24:27;8.68;;;4.50;;
18520;SDS011;9390;51.244;6.982;2023-08-20T10:27:08;8.80;;;4.65;;
18520;SDS011;9390;51.244;6.982;2023-08-20T10:29:40;9.23;;;4.40;;
18520;SDS011;9390;51.244;6.982;2023-08-20T10:32:12;9.77;;;5.30;;
18520;SDS011;9390;51.244;6.982;2023-08-20T10:34:49;9.67;;;4.33;;
18520;SDS011;9390;51.244;6.982;2023-08-20T10:37:29;10.02;;;4.65;;
18520;SDS011;9390;51.244;6.982;2023-08-20T10:40:01;11.55;;;5.10;;
18520;SDS011;9390;51.244;6.982;2023-08-20T10:42:40;9.40;;;4.93;;
18520;SDS011;9390;51.244;6.982;2023-08-20T10:45:13;9.27;;;4.60;;
18520;SDS011;9390;51.244;6.982;2023-08-20T10:47:44;9.60;;;5.18;;
18520;SDS011;9390;51.244;6.982;2023-08-20T10:50:18;9.88;;;5.00;;
18520;SDS011;9390;51.244;6.982;2023-08-20T10:52:54;11.68;;;5.50;;
18520;SDS011;9390;51.244;6.982;2023-08-20T10:55:26;11.73;;;6.00;;
18520;SDS011;9390;51.244;6.982;2023-08-20T10:57:58;9.68;;;5.15;;
18520;SDS011;9390;51.244;6.982;2023-08-20T11:00:32;11.32;;;5.85;;
18520;SDS011;9390;51.244;6.982;2023-08-20T11:03:04;11.55;;;5.28;;
18520;SDS011;9390;51.244;6.982;2023-08-20T11:05:36;12.13;;;5.00;;
18520;SDS011;9390;51.244;6.982;2023-08-20T11:08:09;9.73;;;5.13;;
18520;SDS011;9390;51.244;6.982;2023-08-20T11:10:41;10.75;;;5.70;;
18520;SDS011;9390;51.244;6.982;2023-08-20T11:13:12;9.55;;;5.18;;
18520;SDS011;9390;51.244;6.982;2023-08-20T11:15:43;9.90;;;5.45;;
18520;SDS011;9390;51.244;6.982;2023-08-20T11:18:15;9.70;;;4.93;;
18520;SDS011;9390;51.244;6.982;2023-08-20T11:20:47;9.20;;;5.22;;
18520;SDS011;9390;51.244;6.982;2023-08-20T11:23:20;11.50;;;4.47;;
18520;SDS011;9390;51.244;6.982;2023-08-20T11:25:51;10.25;;;4.60;;
18520;SDS011;9390;51.244;6.982;2023-08-20T11:28:24;8.43;;;4.38;;
18520;SDS011;9390;51.244;6.982;2023-08-20T11:30:56;10.75;;;5.40;;
18520;SDS011;9390;51.244;6.982;2023-08-20T11:33:28;10.32;;;5.35;;
18520;SDS011;9390;51.244;6.982;2023-08-20T11:35:59;10.13;;;4.60;;
18520;SDS011;9390;51.244;6.982;2023-08-20T11:41:04;9.13;;;5.15;;
18520;SDS011;9390;51.244;6.982;2023-08-20T11:43:36;9.70;;;4.97;;
18520;SDS011;9390;51.244;6.982;2023-08-20T11:46:12;9.35;;;5.03;;
18520;SDS011;9390;51.244;6.982;2023-08-20T11:49:00;8.38;;;5.00;;
18520;SDS011;9390;51.244;6.982;2023-08-20T11:51:35;10.60;;;4.68;;
18520;SDS011;9390;51.244;6.982;2023-08-20T11:54:10;10.93;;;5.90;;
18520;SDS011;9390;51.244;6.982;2023-08-20T11:56:43;12.00;;;6.10;;
18520;SDS011;9390;51.244;6.982;2023-08-20T11:59:16;11.40;;;6.82;;
18520;SDS011;9390;51.244;6.982;2023-08-20T12:01:51;10.98;;;5.70;;
18520;SDS011;9390;51.244;6.982;2023-08-20T12:04:23;13.55;;;6.55;;
18520;SDS011;9390;51.244;6.982;2023-08-20T12:07:03;10.68;;;5.72;;
18520;SDS011;9390;51.244;6.982;2023-08-20T12:09:36;11.00;;;6.00;;
18520;SDS011;9390;51.244;6.982;2023-08-20T12:12:08;16.25;;;6.85;;
18520;SDS011;9390;51.244;6.982;2023-08-20T12:14:39;11.73;;;8.18;;
18520;SDS011;9390;51.244;6.982;2023-08-20T12:17:12;12.30;;;6.88;;
18520;SDS011;9390;51.244;6.982;2023-08-20T12:19:44;10.70;;;6.80;;
18520;SDS011;9390;51.244;6.982;2023-08-20T12:22:15;12.65;;;6.85;;
18520;SDS011;9390;51.244;6.982;2023-08-20T12:24:48;9.95;;;6.57;;
18520;SDS011;9390;51.244;6.982;2023-08-20T12:27:22;9.13;;;5.70;;
18520;SDS011;9390;51.244;6.982;2023-08-20T12:29:53;16.17;;;6.30;;
18520;SDS011;9390;51.244;6.982;2023-08-20T12:32:24;11.23;;;6.53;;
18520;SDS011;9390;51.244;6.982;2023-08-20T12:34:56;12.02;;;6.43;;
18520;SDS011;9390;51.244;6.982;2023-08-20T12:37:27;11.27;;;5.90;;
18520;SDS011;9390;51.244;6.982;2023-08-20T12:40:00;10.73;;;5.68;;
18520;SDS011;9390;51.244;6.982;2023-08-20T12:42:33;9.85;;;6.13;;
18520;SDS011;9390;51.244;6.982;2023-08-20T12:45:05;12.35;;;6.40;;
18520;SDS011;9390;51.244;6.982;2023-08-20T12:47:37;11.10;;;7.05;;
18520;SDS011;9390;51.244;6.982;2023-08-20T12:50:09;13.82;;;8.68;;
18520;SDS011;9390;51.244;6.982;2023-08-20T12:52:43;12.75;;;7.95;;
18520;SDS011;9390;51.244;6.982;2023-08-20T12:55:16;13.57;;;7.32;;
18520;SDS011;9390;51.244;6.982;2023-08-20T12:57:53;12.13;;;7.90;;
18520;SDS011;9390;51.244;6.982;2023-08-20T13:00:26;13.60;;;8.75;;
18520;SDS011;9390;51.244;6.982;2023-08-20T13:02:58;16.90;;;9.95;;
18520;SDS011;9390;51.244;6.982;2023-08-20T13:05:29;12.85;;;8.35;;
18520;SDS011;9390;51.244;6.982;2023-08-20T13:08:01;11.00;;;7.70;;
18520;SDS011;9390;51.244;6.982;2023-08-20T13:10:37;12.48;;;7.45;;
18520;SDS011;9390;51.244;6.982;2023-08-20T13:13:10;14.80;;;7.72;;
18520;SDS011;9390;51.244;6.982;2023-08-20T13:15:42;11.40;;;8.18;;
18520;SDS011;9390;51.244;6.982;2023-08-20T13:18:15;11.57;;;7.53;;
18520;SDS011;9390;51.244;6.982;2023-08-20T13:20:47;13.40;;;8.07;;
18520;SDS011;9390;51.244;6.982;2023-08-20T13:23:19;12.55;;;7.93;;
18520;SDS011;9390;51.244;6.982;2023-08-20T13:25:52;14.75;;;7.82;;
18520;SDS011;9390;51.244;6.982;2023-08-20T13:28:24;12.65;;;8.20;;
18520;SDS011;9390;51.244;6.982;2023-08-20T13:30:55;13.00;;;7.68;;
18520;SDS011;9390;51.244;6.982;2023-08-20T13:33:27;12.93;;;7.33;;
18520;SDS011;9390;51.244;6.982;2023-08-20T13:35:58;12.17;;;7.93;;
18520;SDS011;9390;51.244;6.982;2023-08-20T13:38:30;11.60;;;7.00;;
18520;SDS011;9390;51.244;6.982;2023-08-20T13:41:03;12.32;;;7.25;;
18520;SDS011;9390;51.244;6.982;2023-08-20T13:43:35;12.20;;;7.60;;
18520;SDS011;9390;51.244;6.982;2023-08-20T13:46:06;11.30;;;7.30;;
18520;SDS011;9390;51.244;6.982;2023-08-20T13:48:38;12.15;;;6.80;;
18520;SDS011;9390;51.244;6.982;2023-08-20T13:51:10;9.10;;;6.00;;
18520;SDS011;9390;51.244;6.982;2023-08-20T13:53:41;12.38;;;6.13;;
18520;SDS011;9390;51.244;6.982;2023-08-20T13:56:14;9.88;;;5.75;;
18520;SDS011;9390;51.244;6.982;2023-08-20T13:58:46;11.43;;;6.05;;
18520;SDS011;9390;51.244;6.982;2023-08-20T14:01:17;15.47;;;6.30;;
18520;SDS011;9390;51.244;6.982;2023-08-20T14:03:49;11.40;;;6.43;;
18520;SDS011;9390;51.244;6.982;2023-08-20T14:06:21;15.50;;;6.67;;
18520;SDS011;9390;51.244;6.982;2023-08-20T14:08:52;12.68;;;6.80;;
18520;SDS011;9390;51.244;6.982;2023-08-20T14:11:25;10.80;;;6.13;;
18520;SDS011;9390;51.244;6.982;2023-08-20T14:13:57;13.13;;;6.15;;
18520;SDS011;9390;51.244;6.982;2023-08-20T14:16:29;9.10;;;6.27;;
18520;SDS011;9390;51.244;6.982;2023-08-20T14:19:00;10.18;;;6.30;;
18520;SDS011;9390;51.244;6.982;2023-08-20T14:21:32;10.63;;;6.53;;
18520;SDS011;9390;51.244;6.982;2023-08-20T14:24:04;12.48;;;7.13;;
18520;SDS011;9390;51.244;6.982;2023-08-20T14:26:37;13.68;;;7.57;;
18520;SDS011;9390;51.244;6.982;2023-08-20T14:29:08;11.60;;;6.45;;
18520;SDS011;9390;51.244;6.982;2023-08-20T14:31:40;10.93;;;6.63;;
18520;SDS011;9390;51.244;6.982;2023-08-20T14:34:14;13.48;;;6.00;;
18520;SDS011;9390;51.244;6.982;2023-08-20T14:36:46;13.23;;;6.43;;
18520;SDS011;9390;51.244;6.982;2023-08-20T14:39:17;12.85;;;5.95;;
18520;SDS011;9390;51.244;6.982;2023-08-20T14:41:50;10.27;;;6.25;;
18520;SDS011;9390;51.244;6.982;2023-08-20T14:44:22;14.60;;;5.95;;
18520;SDS011;9390;51.244;6.982;2023-08-20T14:46:53;10.40;;;5.90;;
18520;SDS011;9390;51.244;6.982;2023-08-20T14:49:25;8.90;;;5.63;;
18520;SDS011;9390;51.244;6.982;2023-08-20T14:51:58;12.02;;;6.60;;
18520;SDS011;9390;51.244;6.982;2023-08-20T14:54:30;12.13;;;6.20;;
18520;SDS011;9390;51.244;6.982;2023-08-20T14:57:04;10.73;;;5.88;;
18520;SDS011;9390;51.244;6.982;2023-08-20T14:59:35;10.82;;;6.00;;
18520;SDS011;9390;51.244;6.982;2023-08-20T15:02:07;8.77;;;6.07;;
18520;SDS011;9390;51.244;6.982;2023-08-20T15:04:38;10.77;;;5.77;;
18520;SDS011;9390;51.244;6.982;2023-08-20T15:07:10;9.50;;;5.77;;
18520;SDS011;9390;51.244;6.982;2023-08-20T15:09:41;10.57;;;5.55;;
18520;SDS011;9390;51.244;6.982;2023-08-20T15:12:14;12.00;;;5.63;;
18520;SDS011;9390;51.244;6.982;2023-08-20T15:14:46;8.95;;;5.32;;
18520;SDS011;9390;51.244;6.982;2023-08-20T15:17:18;9.27;;;5.65;;
18520;SDS011;9390;51.244;6.982;2023-08-20T15:19:49;9.03;;;4.83;;
18520;SDS011;9390;51.244;6.982;2023-08-20T15:22:21;8.97;;;5.20;;
18520;SDS011;9390;51.244;6.982;2023-08-20T15:24:52;8.00;;;4.83;;
18520;SDS011;9390;51.244;6.982;2023-08-20T15:27:25;14.80;;;5.70;;
18520;SDS011;9390;51.244;6.982;2023-08-20T15:29:57;12.75;;;5.95;;
18520;SDS011;9390;51.244;6.982;2023-08-20T15:32:28;9.05;;;5.32;;
18520;SDS011;9390;51.244;6.982;2023-08-20T15:35:00;9.57;;;5.32;;
18520;SDS011;9390;51.244;6.982;2023-08-20T15:37:33;9.60;;;5.07;;
18520;SDS011;9390;51.244;6.982;2023-08-20T15:40:05;10.80;;;5.57;;
18520;SDS011;9390;51.244;6.982;2023-08-20T15:42:43;10.77;;;4.95;;
18520;SDS011;9390;51.244;6.982;2023-08-20T15:45:14;10.32;;;5.18;;
18520;SDS011;9390;51.244;6.982;2023-08-20T15:47:46;13.73;;;5.78;;
18520;SDS011;9390;51.244;6.982;2023-08-20T15:50:18;10.90;;;5.57;;